Map

Track Data

SID SEASON NUMBER BASIN SUBBASIN NAME ISO_TIME NATURE LAT LON WMO_WIND WMO_PRES WMO_AGENCY TRACK_TYPE DIST2LAND LANDFALL IFLAG USA_AGENCY USA_ATCF_ID USA_LAT USA_LON USA_RECORD USA_STATUS USA_WIND USA_PRES USA_SSHS USA_R34_NE USA_R34_SE USA_R34_SW USA_R34_NW USA_R50_NE USA_R50_SE USA_R50_SW USA_R50_NW USA_R64_NE USA_R64_SE USA_R64_SW USA_R64_NW USA_POCI USA_ROCI USA_RMW USA_EYE TOKYO_LAT TOKYO_LON TOKYO_GRADE TOKYO_WIND TOKYO_PRES TOKYO_R50_DIR TOKYO_R50_LONG TOKYO_R50_SHORT TOKYO_R30_DIR TOKYO_R30_LONG TOKYO_R30_SHORT TOKYO_LAND CMA_LAT CMA_LON CMA_CAT CMA_WIND CMA_PRES HKO_LAT HKO_LON HKO_CAT HKO_WIND HKO_PRES NEWDELHI_LAT NEWDELHI_LON NEWDELHI_GRADE NEWDELHI_WIND NEWDELHI_PRES NEWDELHI_CI NEWDELHI_DP NEWDELHI_POCI REUNION_LAT REUNION_LON REUNION_TYPE REUNION_WIND REUNION_PRES REUNION_TNUM REUNION_CI REUNION_RMW REUNION_R34_NE REUNION_R34_SE REUNION_R34_SW REUNION_R34_NW REUNION_R50_NE REUNION_R50_SE REUNION_R50_SW REUNION_R50_NW REUNION_R64_NE REUNION_R64_SE REUNION_R64_SW REUNION_R64_NW BOM_LAT BOM_LON BOM_TYPE BOM_WIND BOM_PRES BOM_TNUM BOM_CI BOM_RMW BOM_R34_NE BOM_R34_SE BOM_R34_SW BOM_R34_NW BOM_R50_NE BOM_R50_SE BOM_R50_SW BOM_R50_NW BOM_R64_NE BOM_R64_SE BOM_R64_SW BOM_R64_NW BOM_ROCI BOM_POCI BOM_EYE BOM_POS_METHOD BOM_PRES_METHOD NADI_LAT NADI_LON NADI_CAT NADI_WIND NADI_PRES WELLINGTON_LAT WELLINGTON_LON WELLINGTON_WIND WELLINGTON_PRES DS824_LAT DS824_LON DS824_STAGE DS824_WIND DS824_PRES TD9636_LAT TD9636_LON TD9636_STAGE TD9636_WIND TD9636_PRES TD9635_LAT TD9635_LON TD9635_WIND TD9635_PRES TD9635_ROCI NEUMANN_LAT NEUMANN_LON NEUMANN_CLASS NEUMANN_WIND NEUMANN_PRES MLC_LAT MLC_LON MLC_CLASS MLC_WIND MLC_PRES USA_GUST BOM_GUST BOM_GUST_PER REUNION_GUST REUNION_GUST_PER USA_SEAHGT USA_SEARAD_NE USA_SEARAD_SE USA_SEARAD_SW USA_SEARAD_NW STORM_SPEED STORM_DIR
1961245N13318 1961 83 NA NA BETSY 1961-09-02 06:00:00 TS 13.3000 -41.6000 55 hurdat_atl main 1466 1443 O_____________ hurdat_atl AL021961 13.3000 -41.6000 TS 55 0 11 297
1961245N13318 1961 83 NA NA BETSY 1961-09-02 09:00:00 TS 13.5502 -42.0998 main 1451 1429 P_____________ AL021961 13.5502 -42.0998 TS 57 0 11 297
1961245N13318 1961 83 NA NA BETSY 1961-09-02 12:00:00 TS 13.8000 -42.6000 60 hurdat_atl main 1429 1410 O_____________ hurdat_atl AL021961 13.8000 -42.6000 TS 60 0 11 297
1961245N13318 1961 83 NA NA BETSY 1961-09-02 15:00:00 TS 14.0499 -43.1001 main 1410 1400 P_____________ AL021961 14.0499 -43.1001 TS 65 1 11 297
1961245N13318 1961 83 NA NA BETSY 1961-09-02 18:00:00 TS 14.3000 -43.6000 70 hurdat_atl main 1402 1388 O_____________ hurdat_atl AL021961 14.3000 -43.6000 HU 70 1 11 297
1961245N13318 1961 83 NA NA BETSY 1961-09-02 21:00:00 TS 14.5499 -44.1001 main 1388 1382 P_____________ AL021961 14.5499 -44.1001 HU 75 1 11 297
1961245N13318 1961 83 NA NA BETSY 1961-09-03 00:00:00 TS 14.8000 -44.6000 80 hurdat_atl main 1386 1370 O_____________ hurdat_atl AL021961 14.8000 -44.6000 HU 80 1 11 297
1961245N13318 1961 83 NA NA BETSY 1961-09-03 03:00:00 TS 15.0423 -45.0927 main 1370 1362 P_____________ AL021961 15.0423 -45.0927 HU 82 1 11 297
1961245N13318 1961 83 NA NA BETSY 1961-09-03 06:00:00 TS 15.3000 -45.6000 85 hurdat_atl main 1365 1354 O_____________ hurdat_atl AL021961 15.3000 -45.6000 HU 85 2 11 297
1961245N13318 1961 83 NA NA BETSY 1961-09-03 09:00:00 TS 15.5549 -46.1355 main 1364 1351 P_____________ AL021961 15.5549 -46.1355 HU 87 2 12 300
1961245N13318 1961 83 NA NA BETSY 1961-09-03 12:00:00 TS 15.9000 -46.7000 90 973 hurdat_atl main 1360 1355 O_____________ hurdat_atl AL021961 15.9000 -46.7000 HU 90 973 2 14 307
1961245N13318 1961 83 NA NA BETSY 1961-09-03 15:00:00 TS 16.4050 -47.3000 main 1380 1380 P_____________ AL021961 16.4050 -47.3000 HU 87 975 2 16 314
1961245N13318 1961 83 NA NA BETSY 1961-09-03 18:00:00 TS 17.0000 -47.9000 85 hurdat_atl main 1414 1414 I_____________ hurdat_atl AL021961 17.0000 -47.9000 HU 85 977 2 16 316
1961245N13318 1961 83 NA NA BETSY 1961-09-03 21:00:00 TS 17.5925 -48.4801 main 1449 1449 P_____________ AL021961 17.5925 -48.4801 HU 82 979 1 16 319
1961245N13318 1961 83 NA NA BETSY 1961-09-04 00:00:00 TS 18.2000 -49.0000 80 981 hurdat_atl main 1488 1488 O_____________ hurdat_atl AL021961 18.2000 -49.0000 HU 80 981 1 15 322
1961245N13318 1961 83 NA NA BETSY 1961-09-04 03:00:00 TS 18.7924 -49.4601 main 1531 1531 P_____________ AL021961 18.7924 -49.4601 HU 80 982 1 14 328
1961245N13318 1961 83 NA NA BETSY 1961-09-04 06:00:00 TS 19.4000 -49.8000 80 hurdat_atl main 1546 1545 I_____________ hurdat_atl AL021961 19.4000 -49.8000 HU 80 983 1 14 338
1961245N13318 1961 83 NA NA BETSY 1961-09-04 09:00:00 TS 20.0424 -50.0028 main 1572 1572 P_____________ AL021961 20.0424 -50.0028 HU 77 984 1 13 348
1961245N13318 1961 83 NA NA BETSY 1961-09-04 12:00:00 TS 20.7000 -50.1000 75 986 hurdat_atl main 1615 1615 O_____________ hurdat_atl AL021961 20.7000 -50.1000 HU 75 986 1 13 354
1961245N13318 1961 83 NA NA BETSY 1961-09-04 15:00:00 TS 21.3574 -50.1430 main 1654 1645 P_____________ AL021961 21.3574 -50.1430 HU 75 984 1 13 356
1961245N13318 1961 83 NA NA BETSY 1961-09-04 18:00:00 TS 22.0000 -50.2000 75 982 hurdat_atl main 1655 1652 O_____________ hurdat_atl AL021961 22.0000 -50.2000 HU 75 982 1 13 351
1961245N13318 1961 83 NA NA BETSY 1961-09-04 21:00:00 TS 22.6074 -50.3478 main 1660 1644 P_____________ AL021961 22.6074 -50.3478 HU 80 1 13 343
1961245N13318 1961 83 NA NA BETSY 1961-09-05 00:00:00 TS 23.2000 -50.6000 85 hurdat_atl main 1647 1628 O_____________ hurdat_atl AL021961 23.2000 -50.6000 HU 85 2 13 334
1961245N13318 1961 83 NA NA BETSY 1961-09-05 03:00:00 TS 23.8001 -50.9774 main 1628 1610 P_____________ AL021961 23.8001 -50.9774 HU 90 2 14 329
1961245N13318 1961 83 NA NA BETSY 1961-09-05 06:00:00 TS 24.4000 -51.4000 95 hurdat_atl main 1614 1603 O_____________ hurdat_atl AL021961 24.4000 -51.4000 HU 95 2 14 329
1961245N13318 1961 83 NA NA BETSY 1961-09-05 09:00:00 TS 24.9848 -51.7507 main 1603 1600 P_____________ AL021961 24.9848 -51.7507 HU 100 3 14 332
1961245N13318 1961 83 NA NA BETSY 1961-09-05 12:00:00 TS 25.6000 -52.1000 105 957 hurdat_atl main 1605 1602 O_____________ hurdat_atl AL021961 25.6000 -52.1000 HU 105 957 3 15 333
1961245N13318 1961 83 NA NA BETSY 1961-09-05 15:00:00 TS 26.2773 -52.4708 main 1608 1605 P_____________ AL021961 26.2773 -52.4708 HU 107 955 3 16 333
1961245N13318 1961 83 NA NA BETSY 1961-09-05 18:00:00 TS 27.0000 -52.9000 110 hurdat_atl main 1616 1613 I_____________ hurdat_atl AL021961 27.0000 -52.9000 HU 110 954 3 17 330
1961245N13318 1961 83 NA NA BETSY 1961-09-05 21:00:00 TS 27.7501 -53.4350 main 1628 1619 P_____________ AL021961 27.7501 -53.4350 HU 112 953 3 18 327
1961245N13318 1961 83 NA NA BETSY 1961-09-06 00:00:00 TS 28.5000 -54.0000 115 952 hurdat_atl main 1632 1632 O_____________ hurdat_atl AL021961 28.5000 -54.0000 HU 115 952 4 18 328
1961245N13318 1961 83 NA NA BETSY 1961-09-06 03:00:00 TS 29.2221 -54.5008 main 1650 1650 P_____________ AL021961 29.2221 -54.5008 HU 115 950 4 17 328
1961245N13318 1961 83 NA NA BETSY 1961-09-06 06:00:00 TS 29.9000 -55.0000 115 hurdat_atl main 1673 1673 I_____________ hurdat_atl AL021961 29.9000 -55.0000 HU 115 948 4 16 324
1961245N13318 1961 83 NA NA BETSY 1961-09-06 09:00:00 TS 30.5151 -55.5653 main 1680 1599 P_____________ AL021961 30.5151 -55.5653 HU 115 946 4 15 322
1961245N13318 1961 83 NA NA BETSY 1961-09-06 12:00:00 TS 31.1000 -56.1000 115 945 hurdat_atl main 1599 1522 O_____________ hurdat_atl AL021961 31.1000 -56.1000 HU 115 945 4 15 325
1961245N13318 1961 83 NA NA BETSY 1961-09-06 15:00:00 TS 31.7298 -56.5526 main 1518 1445 P_____________ AL021961 31.7298 -56.5526 HU 110 949 3 14 330
1961245N13318 1961 83 NA NA BETSY 1961-09-06 18:00:00 TS 32.3000 -56.9000 105 954 hurdat_atl main 1445 1397 O_____________ hurdat_atl AL021961 32.3000 -56.9000 HU 105 954 3 11 335
1961245N13318 1961 83 NA NA BETSY 1961-09-06 21:00:00 TS 32.7447 -57.1234 main 1397 1349 P_____________ AL021961 32.7447 -57.1234 HU 105 3 9 337
1961245N13318 1961 83 NA NA BETSY 1961-09-07 00:00:00 TS 33.1000 -57.3000 105 hurdat_atl main 1349 1311 O_____________ hurdat_atl AL021961 33.1000 -57.3000 HU 105 3 8 333
1961245N13318 1961 83 NA NA BETSY 1961-09-07 03:00:00 TS 33.4225 -57.5426 main 1311 1268 P_____________ AL021961 33.4225 -57.5426 HU 102 3 7 325
1961245N13318 1961 83 NA NA BETSY 1961-09-07 06:00:00 TS 33.7000 -57.8000 100 hurdat_atl main 1268 1230 O_____________ hurdat_atl AL021961 33.7000 -57.8000 HU 100 3 7 322
1961245N13318 1961 83 NA NA BETSY 1961-09-07 09:00:00 TS 33.9650 -58.0576 main 1226 1197 P_____________ AL021961 33.9650 -58.0576 HU 97 3 7 320
1961245N13318 1961 83 NA NA BETSY 1961-09-07 12:00:00 TS 34.2000 -58.3000 95 954 hurdat_atl main 1197 1169 O_____________ hurdat_atl AL021961 34.2000 -58.3000 HU 95 954 2 6 320
1961245N13318 1961 83 NA NA BETSY 1961-09-07 15:00:00 TS 34.4074 -58.5003 main 1169 1141 P_____________ AL021961 34.4074 -58.5003 HU 92 2 5 320
1961245N13318 1961 83 NA NA BETSY 1961-09-07 18:00:00 TS 34.6000 -58.7000 90 hurdat_atl main 1141 1113 O_____________ hurdat_atl AL021961 34.6000 -58.7000 HU 90 2 5 317
1961245N13318 1961 83 NA NA BETSY 1961-09-07 21:00:00 TS 34.8075 -58.9500 main 1113 1080 P_____________ AL021961 34.8075 -58.9500 HU 90 2 6 314
1961245N13318 1961 83 NA NA BETSY 1961-09-08 00:00:00 TS 35.0000 -59.2000 90 hurdat_atl main 1080 1052 O_____________ hurdat_atl AL021961 35.0000 -59.2000 HU 90 2 5 313
1961245N13318 1961 83 NA NA BETSY 1961-09-08 03:00:00 TS 35.1650 -59.4151 main 1052 1034 P_____________ AL021961 35.1650 -59.4151 HU 87 2 4 313
1961245N13318 1961 83 NA NA BETSY 1961-09-08 06:00:00 TS 35.3000 -59.6000 85 hurdat_atl main 1034 1016 O_____________ hurdat_atl AL021961 35.3000 -59.6000 HU 85 2 4 307
1961245N13318 1961 83 NA NA BETSY 1961-09-08 09:00:00 TS 35.3925 -59.7875 main 1016 1002 P_____________ AL021961 35.3925 -59.7875 HU 85 2 3 309
1961245N13318 1961 83 NA NA BETSY 1961-09-08 12:00:00 TS 35.5000 -59.9000 85 hurdat_atl main 1002 982 O_____________ hurdat_atl AL021961 35.5000 -59.9000 HU 85 2 3 347
1961245N13318 1961 83 NA NA BETSY 1961-09-08 15:00:00 TS 35.7075 -59.8877 main 982 966 P_____________ AL021961 35.7075 -59.8877 HU 80 1 4 11
1961245N13318 1961 83 NA NA BETSY 1961-09-08 18:00:00 TS 35.9000 -59.8000 75 974 hurdat_atl main 966 961 O_____________ hurdat_atl AL021961 35.9000 -59.8000 HU 75 974 1 3 28
1961245N13318 1961 83 NA NA BETSY 1961-09-08 21:00:00 TS 35.9575 -59.7223 main 961 961 P_____________ AL021961 35.9575 -59.7223 HU 75 1 2 58
1961245N13318 1961 83 NA NA BETSY 1961-09-09 00:00:00 TS 36.0000 -59.6000 75 hurdat_atl main 965 959 O_____________ hurdat_atl AL021961 36.0000 -59.6000 HU 75 1 3 54
1961245N13318 1961 83 NA NA BETSY 1961-09-09 03:00:00 TS 36.1350 -59.4225 main 964 949 P_____________ AL021961 36.1350 -59.4225 HU 75 1 4 47
1961245N13318 1961 83 NA NA BETSY 1961-09-09 06:00:00 TS 36.3000 -59.2000 75 hurdat_atl main 953 949 O_____________ hurdat_atl AL021961 36.3000 -59.2000 HU 75 1 4 49
1961245N13318 1961 83 NA NA BETSY 1961-09-09 09:00:00 TS 36.4270 -59.0092 main 953 944 P_____________ AL021961 36.4270 -59.0092 HU 75 1 5 53
1961245N13318 1961 83 NA NA BETSY 1961-09-09 12:00:00 TS 36.6000 -58.7000 75 978 hurdat_atl main 949 945 O_____________ hurdat_atl AL021961 36.6000 -58.7000 HU 75 978 1 8 57
1961245N13318 1961 83 NA NA BETSY 1961-09-09 15:00:00 TS 36.8626 -58.1673 main 948 936 P_____________ AL021961 36.8626 -58.1673 HU 77 977 1 11 58
1961245N13318 1961 83 NA NA BETSY 1961-09-09 18:00:00 TS 37.2000 -57.5000 80 976 hurdat_atl main 939 914 O_____________ hurdat_atl AL021961 37.2000 -57.5000 HU 80 976 1 13 55
1961245N13318 1961 83 NA NA BETSY 1961-09-09 21:00:00 TS 37.5994 -56.8375 main 917 897 P_____________ AL021961 37.5994 -56.8375 HU 80 1 14 54
1961245N13318 1961 83 NA NA BETSY 1961-09-10 00:00:00 TS 38.0000 -56.1000 80 hurdat_atl main 901 895 O_____________ hurdat_atl AL021961 38.0000 -56.1000 HU 80 1 14 59
1961245N13318 1961 83 NA NA BETSY 1961-09-10 03:00:00 TS 38.3141 -55.3012 main 904 892 P_____________ AL021961 38.3141 -55.3012 HU 82 1 15 66
1961245N13318 1961 83 NA NA BETSY 1961-09-10 06:00:00 TS 38.6000 -54.4000 85 hurdat_atl main 892 856 O_____________ hurdat_atl AL021961 38.6000 -54.4000 HU 85 2 16 68
1961245N13318 1961 83 NA NA BETSY 1961-09-10 09:00:00 TS 38.8987 -53.4164 main 856 824 P_____________ AL021961 38.8987 -53.4164 HU 85 2 17 70
1961245N13318 1961 83 NA NA BETSY 1961-09-10 12:00:00 TS 39.2000 -52.3000 85 hurdat_atl main 826 810 O_____________ hurdat_atl AL021961 39.2000 -52.3000 HU 85 2 19 72
1961245N13318 1961 83 NA NA BETSY 1961-09-10 15:00:00 TS 39.4585 -51.1298 main 807 801 P_____________ AL021961 39.4585 -51.1298 HU 85 2 21 73
1961245N13318 1961 83 NA NA BETSY 1961-09-10 18:00:00 TS 39.8000 -49.7000 85 962 hurdat_atl main 806 805 O_____________ hurdat_atl AL021961 39.8000 -49.7000 HU 85 962 2 26 73
1961245N13318 1961 83 NA NA BETSY 1961-09-10 21:00:00 TS 40.2543 -47.8360 main 823 823 P_____________ AL021961 40.2543 -47.8360 HU 85 2 32 70
1961245N13318 1961 83 NA NA BETSY 1961-09-11 00:00:00 ET 40.9000 -45.8000 85 hurdat_atl main 866 866 O_____________ hurdat_atl AL021961 40.9000 -45.8000 EX 85 -4 34 63
1961245N13318 1961 83 NA NA BETSY 1961-09-11 03:00:00 ET 41.7877 -43.8705 main 909 909 P_____________ AL021961 41.7877 -43.8705 EX 85 -4 34 56
1961245N13318 1961 83 NA NA BETSY 1961-09-11 06:00:00 ET 42.8000 -42.0000 85 hurdat_atl main 970 970 O_____________ hurdat_atl AL021961 42.8000 -42.0000 EX 85 -4 32 54
1961245N13318 1961 83 NA NA BETSY 1961-09-11 09:00:00 ET 43.6564 -40.3522 main 1033 1033 P_____________ AL021961 43.6564 -40.3522 EX 85 -4 32 53
1961245N13318 1961 83 NA NA BETSY 1961-09-11 12:00:00 ET 44.7000 -38.5000 85 hurdat_atl main 1124 1124 O_____________ hurdat_atl AL021961 44.7000 -38.5000 EX 85 -4 40 52
1961245N13318 1961 83 NA NA BETSY 1961-09-11 15:00:00 ET 46.1089 -35.9707 main 1265 1265 P_____________ AL021961 46.1089 -35.9707 EX 82 -4 48 52
1961245N13318 1961 83 NA NA BETSY 1961-09-11 18:00:00 ET 47.7000 -33.0000 80 hurdat_atl main 1459 1387 O_____________ hurdat_atl AL021961 47.7000 -33.0000 EX 80 -4 53 54
1961245N13318 1961 83 NA NA BETSY 1961-09-11 21:00:00 ET 49.2455 -29.6370 main 1373 1126 P_____________ AL021961 49.2455 -29.6370 EX 77 -4 52 54
1961245N13318 1961 83 NA NA BETSY 1961-09-12 00:00:00 ET 50.8000 -26.5000 75 hurdat_atl main 1110 934 O_____________ hurdat_atl AL021961 50.8000 -26.5000 EX 75 -4 47 47
1961245N13318 1961 83 NA NA BETSY 1961-09-12 03:00:00 ET 52.4342 -24.1753 main 926 817 P_____________ AL021961 52.4342 -24.1753 EX 72 -4 40 37
1961245N13318 1961 83 NA NA BETSY 1961-09-12 06:00:00 ET 54.0000 -22.6000 70 956 hurdat_atl main 809 742 O_____________ hurdat_atl AL021961 54.0000 -22.6000 EX 70 956 -4 33 28
1961245N13318 1961 83 NA NA BETSY 1961-09-12 09:00:00 ET 55.3716 -21.5633 main 744 727 P_____________ AL021961 55.3716 -21.5633 EX 70 954 -4 27 20
1961245N13318 1961 83 NA NA BETSY 1961-09-12 12:00:00 ET 56.5000 -21.0000 70 952 hurdat_atl main 730 671 O_____________ hurdat_atl AL021961 56.5000 -21.0000 EX 70 952 -4 21 17
1961245N13318 1961 83 NA NA BETSY 1961-09-12 15:00:00 ET 57.3989 -20.4491 main 670 601 P_____________ AL021961 57.3989 -20.4491 EX 70 950 -4 16 20
1961245N13318 1961 83 NA NA BETSY 1961-09-12 18:00:00 ET 58.0000 -20.0000 70 949 hurdat_atl main 601 565 O_____________ hurdat_atl AL021961 58.0000 -20.0000 EX 70 949 -4 11 30
1961245N13318 1961 83 NA NA BETSY 1961-09-12 21:00:00 ET 58.3253 -19.4226 main 565 542 P_____________ AL021961 58.3253 -19.4226 EX 70 947 -4 7 46
1961245N13318 1961 83 NA NA BETSY 1961-09-13 00:00:00 ET 58.5000 -19.0000 70 946 hurdat_atl main 542 520 O_____________ hurdat_atl AL021961 58.5000 -19.0000 EX 70 946 -4 5 39
1961245N13318 1961 83 NA NA BETSY 1961-09-13 03:00:00 ET 58.7484 -18.7767 main 520 486 P_____________ AL021961 58.7484 -18.7767 EX 70 946 -4 5 2
1961245N13318 1961 83 NA NA BETSY 1961-09-13 06:00:00 ET 59.0000 -19.0000 70 947 hurdat_atl main 487 466 O_____________ hurdat_atl AL021961 59.0000 -19.0000 EX 70 947 -4 7 311
1961245N13318 1961 83 NA NA BETSY 1961-09-13 09:00:00 ET 59.2365 -19.8497 main 468 443 P_____________ AL021961 59.2365 -19.8497 EX 67 947 -4 11 296
1961245N13318 1961 83 NA NA BETSY 1961-09-13 12:00:00 ET 59.5000 -21.0000 65 948 hurdat_atl main 444 418 O_____________ hurdat_atl AL021961 59.5000 -21.0000 EX 65 948 -4 13 298
1961245N13318 1961 83 NA NA BETSY 1961-09-13 15:00:00 ET 59.8281 -22.0737 main 421 391 P_____________ AL021961 59.8281 -22.0737 EX 65 950 -4 12 305
1961245N13318 1961 83 NA NA BETSY 1961-09-13 18:00:00 ET 60.2000 -23.0000 65 952 hurdat_atl main 393 356 O_____________ hurdat_atl AL021961 60.2000 -23.0000 EX 65 952 -4 11 317
1961245N13318 1961 83 NA NA BETSY 1961-09-13 21:00:00 ET 60.6514 -23.6128 main 345 315 P_____________ AL021961 60.6514 -23.6128 EX 62 953 -4 9 329
1961245N13318 1961 83 NA NA BETSY 1961-09-14 00:00:00 ET 61.0000 -24.0000 60 954 hurdat_atl main 316 316 O_____________ hurdat_atl AL021961 61.0000 -24.0000 EX 60 954 -4 5 321
1961245N13318 1961 83 NA NA BETSY 1961-09-14 03:00:00 ET 61.0369 -24.2532 main 320 320 P_____________ AL021961 61.0369 -24.2532 EX 60 954 -4 2 270
1961245N13318 1961 83 NA NA BETSY 1961-09-14 06:00:00 ET 61.0000 -24.5000 60 955 hurdat_atl main 323 317 O_____________ hurdat_atl AL021961 61.0000 -24.5000 EX 60 955 -4 3 280
1961245N13318 1961 83 NA NA BETSY 1961-09-14 09:00:00 ET 61.0972 -24.9268 main 319 308 P_____________ AL021961 61.0972 -24.9268 EX 60 955 -4 6 302
1961245N13318 1961 83 NA NA BETSY 1961-09-14 12:00:00 ET 61.3000 -25.5000 60 956 hurdat_atl main 311 295 O_____________ hurdat_atl AL021961 61.3000 -25.5000 EX 60 956 -4 8 312
1961245N13318 1961 83 NA NA BETSY 1961-09-14 15:00:00 ET 61.6345 -26.1738 main 300 289 P_____________ AL021961 61.6345 -26.1738 EX 57 958 -4 10 315
1961245N13318 1961 83 NA NA BETSY 1961-09-14 18:00:00 ET 62.0000 -27.0000 55 960 hurdat_atl main 293 293 O_____________ hurdat_atl AL021961 62.0000 -27.0000 EX 55 960 -4 11 309
1961245N13318 1961 83 NA NA BETSY 1961-09-14 21:00:00 ET 62.3413 -28.0327 main 312 310 P_____________ AL021961 62.3413 -28.0327 EX 52 962 -4 10 298
1961245N13318 1961 83 NA NA BETSY 1961-09-15 00:00:00 ET 62.5000 -29.0000 50 964 hurdat_atl main 345 345 O_____________ hurdat_atl AL021961 62.5000 -29.0000 EX 50 964 -4 8 277
1961245N13318 1961 83 NA NA BETSY 1961-09-15 03:00:00 ET 62.4366 -29.6544 main 382 382 P_____________ AL021961 62.4366 -29.6544 EX 50 966 -4 7 223
1961245N13318 1961 83 NA NA BETSY 1961-09-15 06:00:00 ET 62.0000 -30.0000 50 968 hurdat_atl main 417 417 O_____________ hurdat_atl AL021961 62.0000 -30.0000 EX 50 968 -4 13 191
1961245N13318 1961 83 NA NA BETSY 1961-09-15 09:00:00 ET 61.1866 -30.1566 main 478 478 P_____________ AL021961 61.1866 -30.1566 EX 50 970 -4 20 0
1961245N13318 1961 83 NA NA BETSY 1961-09-15 12:00:00 ET 60.0000 -30.0000 50 972 hurdat_atl main 565 565 O_____________ hurdat_atl AL021961 60.0000 -30.0000 EX 50 972 -4 27 175
1961245N13318 1961 83 NA NA BETSY 1961-09-15 15:00:00 ET 58.4990 -29.6475 main 691 691 P_____________ AL021961 58.4990 -29.6475 EX 47 974 -4 30 170
1961245N13318 1961 83 NA NA BETSY 1961-09-15 18:00:00 ET 57.0000 -29.0000 45 976 hurdat_atl main 826 826 O_____________ hurdat_atl AL021961 57.0000 -29.0000 EX 45 976 -4 27 160
1961245N13318 1961 83 NA NA BETSY 1961-09-15 21:00:00 ET 55.9648 -27.9994 main 911 911 P_____________ AL021961 55.9648 -27.9994 EX 42 978 -4 23 151
1961245N13318 1961 83 NA NA BETSY 1961-09-16 00:00:00 ET 55.0000 -27.0000 40 980 hurdat_atl main 1003 1003 O_____________ hurdat_atl AL021961 55.0000 -27.0000 EX 40 980 -4 24 160
1961245N13318 1961 83 NA NA BETSY 1961-09-16 03:00:00 ET 53.7079 -26.5893 main 1072 1052 P_____________ AL021961 53.7079 -26.5893 EX 37 983 -4 26 167
1961245N13318 1961 83 NA NA BETSY 1961-09-16 06:00:00 ET 52.5000 -26.0000 35 986 hurdat_atl main 1047 975 O_____________ hurdat_atl AL021961 52.5000 -26.0000 EX 35 986 -4 24 151
1961245N13318 1961 83 NA NA BETSY 1961-09-16 09:00:00 ET 51.6462 -24.7105 main 970 874 P_____________ AL021961 51.6462 -24.7105 EX 32 989 -4 24 129
1961245N13318 1961 83 NA NA BETSY 1961-09-16 12:00:00 ET 51.0000 -23.0000 30 992 hurdat_atl main 867 O_____________ hurdat_atl AL021961 51.0000 -23.0000 EX 30 992 -4 25 121

About IBTrACS Database

This database is a web-friendly format of International Best Track Archive for Climate Stewardship (IBTrACS), a global best track data archive curated by NOAA dating back to 1842.

Updated: 2021-11-26